หน้าหลัก
METAR-TAF:

METAR-TAF

ท่าอากาศยาน :

Lycksele, สวีเดน

ละติจูด: 64-32-51N, ลองจิจูด: 018-43-03E, ความสูง: 211 ม.

การสังเกตสภาพอากาศปัจจุบัน

รายงานได้ทำขึ้นเมื่อ 14 นาทีที่แล้ว ณ เวลา 00:50 UTC
ลมสงบ
อุณหภูมิ 14°C
ความชื้น 94%
ความกดอากาศ 1014 hPa
ทัศนวิสัย: 6000 ม.

METAR: ESNL 200050Z AUTO 00000KT 6000 BKN004/// BKN032/// 14/13 Q1014

เวลา: 03:04 (01:04 UTC)


TAF: หายไป

สังเกตการณ์สภาพอากาศและพยากรณ์อากาศของสนามบินมากกว่า 4000 แห่ง (รายงาน METAR และ TAF).

สถานีที่ดูได้จะแสดงไว้ด้วยจุดสีเหลืองและสีแดงบนแผนที่.

เลื่อนเมาส์ไปเหนือจุดเพื่อดูชื่อสถานี.

แล้วคลิกเพื่อดูสังเกตการณ์และการพยากรณ์สภาพอากาศ.

ในการเปลี่ยนแผนที่: คลิกที่ปุ่มสีเขียวที่มีกากบาทสีดำเพื่อซูมเข้า; ที่ปุ่มสีเขียวที่มีขีดเพื่อซูมออก; หรือที่ลูกศรสีเขียวเพื่อไปยังแผนที่ที่อยู่ติดกัน.


METAR-TAF: